sensor_id;sensor_type;location;lat;lon;timestamp;temperature;humidity
22081;DHT22;11207;59.512;18.050;2023-05-10T00:00:20;9.00;99.90
22081;DHT22;11207;59.512;18.050;2023-05-10T00:02:48;9.00;99.90
22081;DHT22;11207;59.512;18.050;2023-05-10T00:05:13;8.90;99.90
22081;DHT22;11207;59.512;18.050;2023-05-10T00:07:39;8.90;99.90
22081;DHT22;11207;59.512;18.050;2023-05-10T00:10:05;8.90;99.90
22081;DHT22;11207;59.512;18.050;2023-05-10T00:12:31;8.90;99.90
22081;DHT22;11207;59.512;18.050;2023-05-10T00:14:56;8.90;99.90
22081;DHT22;11207;59.512;18.050;2023-05-10T00:17:22;8.90;99.90
22081;DHT22;11207;59.512;18.050;2023-05-10T00:19:47;8.80;99.90
22081;DHT22;11207;59.512;18.050;2023-05-10T00:22:13;8.80;99.90
22081;DHT22;11207;59.512;18.050;2023-05-10T00:24:39;8.80;99.90
22081;DHT22;11207;59.512;18.050;2023-05-10T00:27:04;8.80;99.90
22081;DHT22;11207;59.512;18.050;2023-05-10T00:29:30;8.70;99.90
22081;DHT22;11207;59.512;18.050;2023-05-10T00:31:57;8.70;99.90
22081;DHT22;11207;59.512;18.050;2023-05-10T00:34:22;8.70;99.90
22081;DHT22;11207;59.512;18.050;2023-05-10T00:36:48;8.70;99.90
22081;DHT22;11207;59.512;18.050;2023-05-10T00:39:13;8.60;99.90
22081;DHT22;11207;59.512;18.050;2023-05-10T00:41:39;8.50;99.90
22081;DHT22;11207;59.512;18.050;2023-05-10T00:44:05;8.50;99.90
22081;DHT22;11207;59.512;18.050;2023-05-10T00:46:32;8.50;99.90
22081;DHT22;11207;59.512;18.050;2023-05-10T00:48:58;8.50;99.90
22081;DHT22;11207;59.512;18.050;2023-05-10T00:51:24;8.40;99.90
22081;DHT22;11207;59.512;18.050;2023-05-10T00:53:51;8.40;99.90
22081;DHT22;11207;59.512;18.050;2023-05-10T00:56:16;8.40;99.90
22081;DHT22;11207;59.512;18.050;2023-05-10T00:58:42;8.30;99.90
22081;DHT22;11207;59.512;18.050;2023-05-10T01:01:09;8.30;99.90
22081;DHT22;11207;59.512;18.050;2023-05-10T01:03:35;8.20;99.90
22081;DHT22;11207;59.512;18.050;2023-05-10T01:06:01;8.30;99.90
22081;DHT22;11207;59.512;18.050;2023-05-10T01:08:27;8.20;99.90
22081;DHT22;11207;59.512;18.050;2023-05-10T01:10:54;8.20;99.90
22081;DHT22;11207;59.512;18.050;2023-05-10T01:13:41;8.20;99.90
22081;DHT22;11207;59.512;18.050;2023-05-10T01:16:07;8.10;99.90
22081;DHT22;11207;59.512;18.050;2023-05-10T01:18:36;8.10;99.90
22081;DHT22;11207;59.512;18.050;2023-05-10T01:24:12;8.20;99.90
22081;DHT22;11207;59.512;18.050;2023-05-10T01:35:26;8.00;99.90
22081;DHT22;11207;59.512;18.050;2023-05-10T01:41:05;7.90;99.90
22081;DHT22;11207;59.512;18.050;2023-05-10T01:43:45;8.00;99.90
22081;DHT22;11207;59.512;18.050;2023-05-10T01:46:24;7.90;99.90
22081;DHT22;11207;59.512;18.050;2023-05-10T01:48:55;7.80;99.90
22081;DHT22;11207;59.512;18.050;2023-05-10T01:51:27;7.70;99.90
22081;DHT22;11207;59.512;18.050;2023-05-10T01:53:59;7.80;99.90
22081;DHT22;11207;59.512;18.050;2023-05-10T01:56:26;7.80;99.90
22081;DHT22;11207;59.512;18.050;2023-05-10T01:58:53;7.80;99.90
22081;DHT22;11207;59.512;18.050;2023-05-10T02:01:21;7.70;99.90
22081;DHT22;11207;59.512;18.050;2023-05-10T02:03:49;7.70;99.90
22081;DHT22;11207;59.512;18.050;2023-05-10T02:06:16;7.60;99.90
22081;DHT22;11207;59.512;18.050;2023-05-10T02:08:45;7.60;99.90
22081;DHT22;11207;59.512;18.050;2023-05-10T02:11:13;7.60;99.90
22081;DHT22;11207;59.512;18.050;2023-05-10T02:13:39;7.50;99.90
22081;DHT22;11207;59.512;18.050;2023-05-10T02:16:07;7.40;99.90
22081;DHT22;11207;59.512;18.050;2023-05-10T02:18:35;7.60;99.90
22081;DHT22;11207;59.512;18.050;2023-05-10T02:21:02;7.40;99.90
22081;DHT22;11207;59.512;18.050;2023-05-10T02:23:29;7.40;99.90
22081;DHT22;11207;59.512;18.050;2023-05-10T02:25:56;7.30;99.90
22081;DHT22;11207;59.512;18.050;2023-05-10T02:28:23;7.30;99.90
22081;DHT22;11207;59.512;18.050;2023-05-10T02:30:51;7.40;99.90
22081;DHT22;11207;59.512;18.050;2023-05-10T02:33:18;7.30;99.90
22081;DHT22;11207;59.512;18.050;2023-05-10T02:35:46;7.30;99.90
22081;DHT22;11207;59.512;18.050;2023-05-10T02:38:11;7.30;99.90
22081;DHT22;11207;59.512;18.050;2023-05-10T02:40:41;7.30;99.90
22081;DHT22;11207;59.512;18.050;2023-05-10T02:43:11;7.20;99.90
22081;DHT22;11207;59.512;18.050;2023-05-10T02:45:38;7.20;99.90
22081;DHT22;11207;59.512;18.050;2023-05-10T02:48:05;7.10;99.90
22081;DHT22;11207;59.512;18.050;2023-05-10T02:50:32;7.20;99.90
22081;DHT22;11207;59.512;18.050;2023-05-10T02:53:06;7.10;99.90
22081;DHT22;11207;59.512;18.050;2023-05-10T02:55:40;7.10;99.90
22081;DHT22;11207;59.512;18.050;2023-05-10T02:58:06;7.20;99.90
22081;DHT22;11207;59.512;18.050;2023-05-10T03:00:32;7.20;99.90
22081;DHT22;11207;59.512;18.050;2023-05-10T03:02:58;7.20;99.90
22081;DHT22;11207;59.512;18.050;2023-05-10T03:05:23;7.20;99.90
22081;DHT22;11207;59.512;18.050;2023-05-10T03:07:49;7.30;99.90
22081;DHT22;11207;59.512;18.050;2023-05-10T03:10:17;7.20;99.90
22081;DHT22;11207;59.512;18.050;2023-05-10T03:13:12;7.20;99.90
22081;DHT22;11207;59.512;18.050;2023-05-10T03:15:59;7.20;99.90
22081;DHT22;11207;59.512;18.050;2023-05-10T03:21:22;7.30;99.90
22081;DHT22;11207;59.512;18.050;2023-05-10T03:24:05;7.30;99.90
22081;DHT22;11207;59.512;18.050;2023-05-10T03:26:33;7.30;99.90
22081;DHT22;11207;59.512;18.050;2023-05-10T03:28:59;7.40;99.90
22081;DHT22;11207;59.512;18.050;2023-05-10T03:31:25;7.60;99.90
22081;DHT22;11207;59.512;18.050;2023-05-10T03:33:52;7.50;99.90
22081;DHT22;11207;59.512;18.050;2023-05-10T03:36:18;7.50;99.90
22081;DHT22;11207;59.512;18.050;2023-05-10T03:38:44;7.50;99.90
22081;DHT22;11207;59.512;18.050;2023-05-10T03:41:09;7.50;99.90
22081;DHT22;11207;59.512;18.050;2023-05-10T03:43:35;7.60;99.90
22081;DHT22;11207;59.512;18.050;2023-05-10T03:46:03;7.70;99.90
22081;DHT22;11207;59.512;18.050;2023-05-10T03:48:30;7.60;99.90
22081;DHT22;11207;59.512;18.050;2023-05-10T03:50:55;7.70;99.90
22081;DHT22;11207;59.512;18.050;2023-05-10T03:53:21;7.80;99.90
22081;DHT22;11207;59.512;18.050;2023-05-10T03:55:48;7.70;99.90
22081;DHT22;11207;59.512;18.050;2023-05-10T03:58:13;7.80;99.90
22081;DHT22;11207;59.512;18.050;2023-05-10T04:00:39;7.80;99.90
22081;DHT22;11207;59.512;18.050;2023-05-10T04:03:09;7.80;99.90
22081;DHT22;11207;59.512;18.050;2023-05-10T04:05:35;7.90;99.90
22081;DHT22;11207;59.512;18.050;2023-05-10T04:08:01;7.90;99.90
22081;DHT22;11207;59.512;18.050;2023-05-10T04:10:27;7.90;99.90
22081;DHT22;11207;59.512;18.050;2023-05-10T04:12:52;8.00;99.90
22081;DHT22;11207;59.512;18.050;2023-05-10T04:15:18;8.00;99.90
22081;DHT22;11207;59.512;18.050;2023-05-10T04:17:44;8.00;99.90
22081;DHT22;11207;59.512;18.050;2023-05-10T04:20:10;8.20;99.90
22081;DHT22;11207;59.512;18.050;2023-05-10T04:22:36;8.20;99.90
22081;DHT22;11207;59.512;18.050;2023-05-10T04:25:03;8.30;99.90
22081;DHT22;11207;59.512;18.050;2023-05-10T04:27:30;8.30;99.90
22081;DHT22;11207;59.512;18.050;2023-05-10T04:29:55;8.20;99.90
22081;DHT22;11207;59.512;18.050;2023-05-10T04:32:21;8.50;99.90
22081;DHT22;11207;59.512;18.050;2023-05-10T04:34:47;8.40;99.90
22081;DHT22;11207;59.512;18.050;2023-05-10T04:37:12;8.60;99.90
22081;DHT22;11207;59.512;18.050;2023-05-10T04:39:38;8.80;99.90
22081;DHT22;11207;59.512;18.050;2023-05-10T04:42:04;8.90;99.90
22081;DHT22;11207;59.512;18.050;2023-05-10T04:44:31;9.10;99.90
22081;DHT22;11207;59.512;18.050;2023-05-10T04:46:57;9.40;99.90
22081;DHT22;11207;59.512;18.050;2023-05-10T04:49:22;9.50;99.90
22081;DHT22;11207;59.512;18.050;2023-05-10T04:51:48;9.80;99.90
22081;DHT22;11207;59.512;18.050;2023-05-10T04:54:14;10.10;99.90
22081;DHT22;11207;59.512;18.050;2023-05-10T04:56:39;10.20;99.90
22081;DHT22;11207;59.512;18.050;2023-05-10T04:59:06;10.40;99.90
22081;DHT22;11207;59.512;18.050;2023-05-10T05:01:32;10.60;99.90
22081;DHT22;11207;59.512;18.050;2023-05-10T05:03:58;10.80;99.90
22081;DHT22;11207;59.512;18.050;2023-05-10T05:06:23;11.00;99.90
22081;DHT22;11207;59.512;18.050;2023-05-10T05:08:50;11.30;99.90
22081;DHT22;11207;59.512;18.050;2023-05-10T05:11:17;11.50;99.90
22081;DHT22;11207;59.512;18.050;2023-05-10T05:13:42;11.60;99.90
22081;DHT22;11207;59.512;18.050;2023-05-10T05:16:08;11.70;99.90
22081;DHT22;11207;59.512;18.050;2023-05-10T05:18:34;11.80;99.90
22081;DHT22;11207;59.512;18.050;2023-05-10T05:20:59;11.80;99.80
22081;DHT22;11207;59.512;18.050;2023-05-10T05:23:25;11.90;99.20
22081;DHT22;11207;59.512;18.050;2023-05-10T05:25:54;12.00;99.20
22081;DHT22;11207;59.512;18.050;2023-05-10T05:28:20;12.00;99.00
22081;DHT22;11207;59.512;18.050;2023-05-10T05:30:46;12.00;99.00
22081;DHT22;11207;59.512;18.050;2023-05-10T05:33:13;12.10;98.90
22081;DHT22;11207;59.512;18.050;2023-05-10T05:35:40;12.10;99.00
22081;DHT22;11207;59.512;18.050;2023-05-10T05:38:06;12.10;98.70
22081;DHT22;11207;59.512;18.050;2023-05-10T05:40:32;12.10;98.70
22081;DHT22;11207;59.512;18.050;2023-05-10T05:42:57;11.90;99.10
22081;DHT22;11207;59.512;18.050;2023-05-10T05:45:23;12.00;98.60
22081;DHT22;11207;59.512;18.050;2023-05-10T05:47:49;12.00;99.10
22081;DHT22;11207;59.512;18.050;2023-05-10T05:50:14;11.90;99.10
22081;DHT22;11207;59.512;18.050;2023-05-10T05:52:40;12.00;98.70
22081;DHT22;11207;59.512;18.050;2023-05-10T05:55:06;12.10;98.20
22081;DHT22;11207;59.512;18.050;2023-05-10T05:57:31;12.20;98.50
22081;DHT22;11207;59.512;18.050;2023-05-10T05:59:57;12.30;98.10
22081;DHT22;11207;59.512;18.050;2023-05-10T06:02:23;12.60;98.10
22081;DHT22;11207;59.512;18.050;2023-05-10T06:04:48;12.70;97.70
22081;DHT22;11207;59.512;18.050;2023-05-10T06:07:14;12.70;97.80
22081;DHT22;11207;59.512;18.050;2023-05-10T06:09:39;13.00;97.40
22081;DHT22;11207;59.512;18.050;2023-05-10T06:12:05;13.10;97.30
22081;DHT22;11207;59.512;18.050;2023-05-10T06:14:31;13.20;97.20
22081;DHT22;11207;59.512;18.050;2023-05-10T06:16:56;13.30;96.30
22081;DHT22;11207;59.512;18.050;2023-05-10T06:19:22;13.30;96.20
22081;DHT22;11207;59.512;18.050;2023-05-10T06:21:47;13.60;95.70
22081;DHT22;11207;59.512;18.050;2023-05-10T06:24:13;13.60;95.70
22081;DHT22;11207;59.512;18.050;2023-05-10T06:26:39;13.60;95.40
22081;DHT22;11207;59.512;18.050;2023-05-10T06:29:04;13.80;94.60
22081;DHT22;11207;59.512;18.050;2023-05-10T06:31:30;13.90;94.40
22081;DHT22;11207;59.512;18.050;2023-05-10T06:33:56;13.90;95.10
22081;DHT22;11207;59.512;18.050;2023-05-10T06:36:23;13.90;95.40
22081;DHT22;11207;59.512;18.050;2023-05-10T06:38:49;14.10;94.90
22081;DHT22;11207;59.512;18.050;2023-05-10T06:41:16;14.20;95.70
22081;DHT22;11207;59.512;18.050;2023-05-10T06:43:42;14.10;96.00
22081;DHT22;11207;59.512;18.050;2023-05-10T06:46:08;14.20;95.20
22081;DHT22;11207;59.512;18.050;2023-05-10T06:48:34;14.30;94.70
22081;DHT22;11207;59.512;18.050;2023-05-10T06:51:00;14.50;93.70
22081;DHT22;11207;59.512;18.050;2023-05-10T06:53:26;14.70;92.70
22081;DHT22;11207;59.512;18.050;2023-05-10T06:55:51;14.60;94.10
22081;DHT22;11207;59.512;18.050;2023-05-10T06:58:17;14.70;93.70
22081;DHT22;11207;59.512;18.050;2023-05-10T07:00:43;14.60;94.60
22081;DHT22;11207;59.512;18.050;2023-05-10T07:03:10;14.70;94.10
22081;DHT22;11207;59.512;18.050;2023-05-10T07:05:36;14.60;93.60
22081;DHT22;11207;59.512;18.050;2023-05-10T07:08:01;14.90;92.20
22081;DHT22;11207;59.512;18.050;2023-05-10T07:10:27;15.00;92.00
22081;DHT22;11207;59.512;18.050;2023-05-10T07:12:53;15.10;92.10
22081;DHT22;11207;59.512;18.050;2023-05-10T07:15:18;15.40;92.40
22081;DHT22;11207;59.512;18.050;2023-05-10T07:17:44;15.40;89.90
22081;DHT22;11207;59.512;18.050;2023-05-10T07:20:11;15.70;90.50
22081;DHT22;11207;59.512;18.050;2023-05-10T07:22:36;15.80;90.70
22081;DHT22;11207;59.512;18.050;2023-05-10T07:25:02;15.90;88.60
22081;DHT22;11207;59.512;18.050;2023-05-10T07:27:28;16.10;85.50
22081;DHT22;11207;59.512;18.050;2023-05-10T07:29:53;16.30;88.40
22081;DHT22;11207;59.512;18.050;2023-05-10T07:32:20;16.30;84.90
22081;DHT22;11207;59.512;18.050;2023-05-10T07:34:46;16.60;85.60
22081;DHT22;11207;59.512;18.050;2023-05-10T07:37:11;16.50;85.90
22081;DHT22;11207;59.512;18.050;2023-05-10T07:39:37;16.70;83.60
22081;DHT22;11207;59.512;18.050;2023-05-10T07:42:02;16.70;82.20
22081;DHT22;11207;59.512;18.050;2023-05-10T07:44:28;16.90;82.10
22081;DHT22;11207;59.512;18.050;2023-05-10T07:46:54;17.00;82.20
22081;DHT22;11207;59.512;18.050;2023-05-10T07:49:20;17.10;80.70
22081;DHT22;11207;59.512;18.050;2023-05-10T07:51:46;17.20;79.90
22081;DHT22;11207;59.512;18.050;2023-05-10T07:54:12;17.30;78.90
22081;DHT22;11207;59.512;18.050;2023-05-10T07:56:38;17.30;75.70
22081;DHT22;11207;59.512;18.050;2023-05-10T07:59:05;17.50;76.70
22081;DHT22;11207;59.512;18.050;2023-05-10T08:01:33;17.50;76.20
22081;DHT22;11207;59.512;18.050;2023-05-10T08:03:59;17.60;76.80
22081;DHT22;11207;59.512;18.050;2023-05-10T08:06:25;17.70;74.90
22081;DHT22;11207;59.512;18.050;2023-05-10T08:08:52;18.00;71.60
22081;DHT22;11207;59.512;18.050;2023-05-10T08:11:20;18.10;69.50
22081;DHT22;11207;59.512;18.050;2023-05-10T08:13:47;18.20;69.20
22081;DHT22;11207;59.512;18.050;2023-05-10T08:16:13;18.40;70.10
22081;DHT22;11207;59.512;18.050;2023-05-10T08:18:39;18.50;70.10
22081;DHT22;11207;59.512;18.050;2023-05-10T08:21:05;18.70;72.60
22081;DHT22;11207;59.512;18.050;2023-05-10T08:23:31;18.80;67.30
22081;DHT22;11207;59.512;18.050;2023-05-10T08:25:57;18.90;65.40
22081;DHT22;11207;59.512;18.050;2023-05-10T08:28:22;19.00;64.60
22081;DHT22;11207;59.512;18.050;2023-05-10T08:30:49;19.00;60.90
22081;DHT22;11207;59.512;18.050;2023-05-10T08:33:15;19.20;66.40
22081;DHT22;11207;59.512;18.050;2023-05-10T08:35:41;19.40;62.10
22081;DHT22;11207;59.512;18.050;2023-05-10T08:38:06;19.50;61.80
22081;DHT22;11207;59.512;18.050;2023-05-10T08:40:32;19.70;57.10
22081;DHT22;11207;59.512;18.050;2023-05-10T08:43:09;19.60;59.80
22081;DHT22;11207;59.512;18.050;2023-05-10T08:45:40;19.80;63.30
22081;DHT22;11207;59.512;18.050;2023-05-10T08:48:07;20.10;61.00
22081;DHT22;11207;59.512;18.050;2023-05-10T08:50:40;20.10;56.70
22081;DHT22;11207;59.512;18.050;2023-05-10T08:53:11;20.20;56.10
22081;DHT22;11207;59.512;18.050;2023-05-10T08:55:37;20.40;56.00
22081;DHT22;11207;59.512;18.050;2023-05-10T08:58:05;20.60;53.50
22081;DHT22;11207;59.512;18.050;2023-05-10T09:00:30;20.80;54.80
22081;DHT22;11207;59.512;18.050;2023-05-10T09:02:58;20.70;54.20
22081;DHT22;11207;59.512;18.050;2023-05-10T09:05:24;20.90;53.60
22081;DHT22;11207;59.512;18.050;2023-05-10T09:07:50;21.10;52.10
22081;DHT22;11207;59.512;18.050;2023-05-10T09:10:16;21.30;52.70
22081;DHT22;11207;59.512;18.050;2023-05-10T09:12:41;21.40;51.20
22081;DHT22;11207;59.512;18.050;2023-05-10T09:15:09;21.60;52.00
22081;DHT22;11207;59.512;18.050;2023-05-10T09:17:38;22.00;52.10
22081;DHT22;11207;59.512;18.050;2023-05-10T09:20:06;22.20;49.60
22081;DHT22;11207;59.512;18.050;2023-05-10T09:22:32;22.20;49.50
22081;DHT22;11207;59.512;18.050;2023-05-10T09:27:35;22.10;48.70
22081;DHT22;11207;59.512;18.050;2023-05-10T09:30:02;22.00;49.00
22081;DHT22;11207;59.512;18.050;2023-05-10T09:35:10;22.40;46.50
22081;DHT22;11207;59.512;18.050;2023-05-10T09:37:38;22.70;47.50
22081;DHT22;11207;59.512;18.050;2023-05-10T09:40:11;22.70;46.10
22081;DHT22;11207;59.512;18.050;2023-05-10T09:42:38;22.80;47.40
22081;DHT22;11207;59.512;18.050;2023-05-10T09:45:04;23.20;47.60
22081;DHT22;11207;59.512;18.050;2023-05-10T09:47:37;23.20;46.30
22081;DHT22;11207;59.512;18.050;2023-05-10T09:50:04;23.10;45.50
22081;DHT22;11207;59.512;18.050;2023-05-10T09:52:51;22.90;46.30
22081;DHT22;11207;59.512;18.050;2023-05-10T09:55:19;23.00;47.50
22081;DHT22;11207;59.512;18.050;2023-05-10T09:57:46;23.10;47.00
22081;DHT22;11207;59.512;18.050;2023-05-10T10:00:19;22.90;45.60
22081;DHT22;11207;59.512;18.050;2023-05-10T10:02:55;23.00;48.10
22081;DHT22;11207;59.512;18.050;2023-05-10T10:05:31;22.90;47.40
22081;DHT22;11207;59.512;18.050;2023-05-10T10:07:57;22.90;46.50
22081;DHT22;11207;59.512;18.050;2023-05-10T10:10:27;23.10;46.20
22081;DHT22;11207;59.512;18.050;2023-05-10T10:12:54;23.10;46.90
22081;DHT22;11207;59.512;18.050;2023-05-10T10:15:23;23.40;47.80
22081;DHT22;11207;59.512;18.050;2023-05-10T10:17:51;23.80;47.80
22081;DHT22;11207;59.512;18.050;2023-05-10T10:20:18;24.20;45.50
22081;DHT22;11207;59.512;18.050;2023-05-10T10:22:43;24.20;43.50
22081;DHT22;11207;59.512;18.050;2023-05-10T10:25:14;24.00;46.50
22081;DHT22;11207;59.512;18.050;2023-05-10T10:30:25;23.80;42.50
22081;DHT22;11207;59.512;18.050;2023-05-10T10:33:06;23.70;41.70
22081;DHT22;11207;59.512;18.050;2023-05-10T10:35:36;24.00;46.90
22081;DHT22;11207;59.512;18.050;2023-05-10T10:38:02;24.30;44.00
22081;DHT22;11207;59.512;18.050;2023-05-10T10:40:30;24.40;42.70
22081;DHT22;11207;59.512;18.050;2023-05-10T10:42:56;24.50;42.50
22081;DHT22;11207;59.512;18.050;2023-05-10T10:45:24;24.80;41.40
22081;DHT22;11207;59.512;18.050;2023-05-10T10:50:45;24.60;41.30
22081;DHT22;11207;59.512;18.050;2023-05-10T10:53:13;24.70;42.70
22081;DHT22;11207;59.512;18.050;2023-05-10T10:55:48;24.80;42.30
22081;DHT22;11207;59.512;18.050;2023-05-10T10:58:30;24.90;39.60
22081;DHT22;11207;59.512;18.050;2023-05-10T11:01:16;24.70;41.70
22081;DHT22;11207;59.512;18.050;2023-05-10T11:06:32;24.40;40.50
22081;DHT22;11207;59.512;18.050;2023-05-10T11:08:59;24.70;40.70
22081;DHT22;11207;59.512;18.050;2023-05-10T11:11:24;24.70;39.60
22081;DHT22;11207;59.512;18.050;2023-05-10T11:13:51;24.80;40.10
22081;DHT22;11207;59.512;18.050;2023-05-10T11:16:24;24.90;39.60
22081;DHT22;11207;59.512;18.050;2023-05-10T11:19:04;23.60;38.00
22081;DHT22;11207;59.512;18.050;2023-05-10T11:21:31;23.80;42.50
22081;DHT22;11207;59.512;18.050;2023-05-10T11:23:59;24.10;41.40
22081;DHT22;11207;59.512;18.050;2023-05-10T11:26:29;24.20;40.20
22081;DHT22;11207;59.512;18.050;2023-05-10T11:28:55;24.10;39.20
22081;DHT22;11207;59.512;18.050;2023-05-10T11:31:22;23.90;41.50
22081;DHT22;11207;59.512;18.050;2023-05-10T11:33:52;24.00;41.50
22081;DHT22;11207;59.512;18.050;2023-05-10T11:36:23;24.40;40.50
22081;DHT22;11207;59.512;18.050;2023-05-10T11:38:48;24.40;38.90
22081;DHT22;11207;59.512;18.050;2023-05-10T11:41:16;24.50;38.80
22081;DHT22;11207;59.512;18.050;2023-05-10T11:43:42;24.30;39.40
22081;DHT22;11207;59.512;18.050;2023-05-10T11:46:13;24.00;39.40
22081;DHT22;11207;59.512;18.050;2023-05-10T11:48:39;24.20;40.40
22081;DHT22;11207;59.512;18.050;2023-05-10T11:51:06;24.40;40.30
22081;DHT22;11207;59.512;18.050;2023-05-10T11:53:32;24.10;39.00
22081;DHT22;11207;59.512;18.050;2023-05-10T11:56:09;23.70;37.00
22081;DHT22;11207;59.512;18.050;2023-05-10T11:58:36;23.20;38.00
22081;DHT22;11207;59.512;18.050;2023-05-10T12:01:03;23.40;39.50
22081;DHT22;11207;59.512;18.050;2023-05-10T12:03:29;23.60;39.90
22081;DHT22;11207;59.512;18.050;2023-05-10T12:05:56;23.60;39.80
22081;DHT22;11207;59.512;18.050;2023-05-10T12:08:25;23.70;39.60
22081;DHT22;11207;59.512;18.050;2023-05-10T12:10:51;23.80;38.90
22081;DHT22;11207;59.512;18.050;2023-05-10T12:13:17;23.50;38.70
22081;DHT22;11207;59.512;18.050;2023-05-10T12:15:43;23.50;39.30
22081;DHT22;11207;59.512;18.050;2023-05-10T12:18:10;23.60;39.60
22081;DHT22;11207;59.512;18.050;2023-05-10T12:20:37;23.50;39.30
22081;DHT22;11207;59.512;18.050;2023-05-10T12:23:03;23.50;39.50
22081;DHT22;11207;59.512;18.050;2023-05-10T12:25:33;23.20;38.50
22081;DHT22;11207;59.512;18.050;2023-05-10T12:28:02;23.20;40.00
22081;DHT22;11207;59.512;18.050;2023-05-10T12:30:30;23.10;39.90
22081;DHT22;11207;59.512;18.050;2023-05-10T12:33:01;23.20;39.80
22081;DHT22;11207;59.512;18.050;2023-05-10T12:35:30;23.00;39.20
22081;DHT22;11207;59.512;18.050;2023-05-10T12:37:56;23.20;39.60
22081;DHT22;11207;59.512;18.050;2023-05-10T12:40:22;22.70;40.30
22081;DHT22;11207;59.512;18.050;2023-05-10T12:42:48;22.70;39.90
22081;DHT22;11207;59.512;18.050;2023-05-10T12:45:14;22.60;40.00
22081;DHT22;11207;59.512;18.050;2023-05-10T12:47:40;22.50;39.70
22081;DHT22;11207;59.512;18.050;2023-05-10T12:50:06;22.40;39.20
22081;DHT22;11207;59.512;18.050;2023-05-10T12:52:31;22.30;40.50
22081;DHT22;11207;59.512;18.050;2023-05-10T12:54:58;22.20;40.70
22081;DHT22;11207;59.512;18.050;2023-05-10T12:57:24;22.00;41.20
22081;DHT22;11207;59.512;18.050;2023-05-10T12:59:50;22.00;41.30
22081;DHT22;11207;59.512;18.050;2023-05-10T13:02:16;21.80;41.10
22081;DHT22;11207;59.512;18.050;2023-05-10T13:04:44;21.70;41.90
22081;DHT22;11207;59.512;18.050;2023-05-10T13:07:10;21.60;42.40
22081;DHT22;11207;59.512;18.050;2023-05-10T13:09:36;21.60;41.90
22081;DHT22;11207;59.512;18.050;2023-05-10T13:12:02;21.50;41.50
22081;DHT22;11207;59.512;18.050;2023-05-10T13:14:27;21.30;42.50
22081;DHT22;11207;59.512;18.050;2023-05-10T13:16:53;21.20;42.40
22081;DHT22;11207;59.512;18.050;2023-05-10T13:19:19;21.10;42.10
22081;DHT22;11207;59.512;18.050;2023-05-10T13:21:45;21.10;42.90
22081;DHT22;11207;59.512;18.050;2023-05-10T13:24:11;21.00;42.20
22081;DHT22;11207;59.512;18.050;2023-05-10T13:26:42;20.80;42.40
22081;DHT22;11207;59.512;18.050;2023-05-10T13:29:07;20.60;43.10
22081;DHT22;11207;59.512;18.050;2023-05-10T13:31:33;20.40;43.10
22081;DHT22;11207;59.512;18.050;2023-05-10T13:33:59;20.40;43.80
22081;DHT22;11207;59.512;18.050;2023-05-10T13:36:25;20.30;43.40
22081;DHT22;11207;59.512;18.050;2023-05-10T13:38:50;20.20;43.90
22081;DHT22;11207;59.512;18.050;2023-05-10T13:41:16;20.20;43.70
22081;DHT22;11207;59.512;18.050;2023-05-10T13:43:42;20.20;43.40
22081;DHT22;11207;59.512;18.050;2023-05-10T13:46:07;20.10;43.10
22081;DHT22;11207;59.512;18.050;2023-05-10T13:48:33;20.00;43.30
22081;DHT22;11207;59.512;18.050;2023-05-10T13:50:58;19.80;43.10
22081;DHT22;11207;59.512;18.050;2023-05-10T13:53:24;19.70;43.90
22081;DHT22;11207;59.512;18.050;2023-05-10T13:55:50;19.70;43.60
22081;DHT22;11207;59.512;18.050;2023-05-10T13:58:15;19.80;43.90
22081;DHT22;11207;59.512;18.050;2023-05-10T14:00:41;19.60;44.00
22081;DHT22;11207;59.512;18.050;2023-05-10T14:03:07;19.60;43.90
22081;DHT22;11207;59.512;18.050;2023-05-10T14:05:34;19.60;44.60
22081;DHT22;11207;59.512;18.050;2023-05-10T14:08:00;19.60;44.00
22081;DHT22;11207;59.512;18.050;2023-05-10T14:10:26;19.50;45.30
22081;DHT22;11207;59.512;18.050;2023-05-10T14:12:52;19.50;44.90
22081;DHT22;11207;59.512;18.050;2023-05-10T14:15:17;19.30;44.90
22081;DHT22;11207;59.512;18.050;2023-05-10T14:17:43;19.40;45.20
22081;DHT22;11207;59.512;18.050;2023-05-10T14:20:09;19.40;45.00
22081;DHT22;11207;59.512;18.050;2023-05-10T14:22:35;19.40;45.00
22081;DHT22;11207;59.512;18.050;2023-05-10T14:25:00;19.30;43.40
22081;DHT22;11207;59.512;18.050;2023-05-10T14:27:26;19.20;44.10
22081;DHT22;11207;59.512;18.050;2023-05-10T14:29:52;19.00;44.50
22081;DHT22;11207;59.512;18.050;2023-05-10T14:32:18;18.90;44.90
22081;DHT22;11207;59.512;18.050;2023-05-10T14:34:44;18.90;45.30
22081;DHT22;11207;59.512;18.050;2023-05-10T14:37:11;18.70;45.30
22081;DHT22;11207;59.512;18.050;2023-05-10T14:39:37;18.70;45.30
22081;DHT22;11207;59.512;18.050;2023-05-10T14:42:03;18.60;45.70
22081;DHT22;11207;59.512;18.050;2023-05-10T14:44:29;18.60;45.60
22081;DHT22;11207;59.512;18.050;2023-05-10T14:46:54;18.50;45.00
22081;DHT22;11207;59.512;18.050;2023-05-10T14:49:22;18.60;45.60
22081;DHT22;11207;59.512;18.050;2023-05-10T14:51:48;18.50;45.40
22081;DHT22;11207;59.512;18.050;2023-05-10T14:54:13;18.40;45.80
22081;DHT22;11207;59.512;18.050;2023-05-10T14:56:39;18.40;46.00
22081;DHT22;11207;59.512;18.050;2023-05-10T14:59:06;18.30;46.10
22081;DHT22;11207;59.512;18.050;2023-05-10T15:01:32;18.30;46.10
22081;DHT22;11207;59.512;18.050;2023-05-10T15:04:00;18.30;45.80
22081;DHT22;11207;59.512;18.050;2023-05-10T15:06:35;18.30;45.90
22081;DHT22;11207;59.512;18.050;2023-05-10T15:09:01;18.30;45.20
22081;DHT22;11207;59.512;18.050;2023-05-10T15:11:28;18.20;45.60
22081;DHT22;11207;59.512;18.050;2023-05-10T15:13:54;18.10;46.00
22081;DHT22;11207;59.512;18.050;2023-05-10T15:16:20;18.10;45.70
22081;DHT22;11207;59.512;18.050;2023-05-10T15:18:46;17.90;46.00
22081;DHT22;11207;59.512;18.050;2023-05-10T15:21:12;17.90;46.40
22081;DHT22;11207;59.512;18.050;2023-05-10T15:23:37;17.80;46.10
22081;DHT22;11207;59.512;18.050;2023-05-10T15:26:03;17.90;46.40
22081;DHT22;11207;59.512;18.050;2023-05-10T15:28:29;17.90;45.50
22081;DHT22;11207;59.512;18.050;2023-05-10T15:30:55;17.90;45.20
22081;DHT22;11207;59.512;18.050;2023-05-10T15:33:21;17.90;45.90
22081;DHT22;11207;59.512;18.050;2023-05-10T15:35:47;17.80;46.00
22081;DHT22;11207;59.512;18.050;2023-05-10T15:38:13;17.80;46.80
22081;DHT22;11207;59.512;18.050;2023-05-10T15:40:39;17.80;46.00
22081;DHT22;11207;59.512;18.050;2023-05-10T15:43:04;17.80;45.80
22081;DHT22;11207;59.512;18.050;2023-05-10T15:45:33;17.70;46.00
22081;DHT22;11207;59.512;18.050;2023-05-10T15:47:58;17.60;46.00
22081;DHT22;11207;59.512;18.050;2023-05-10T15:50:25;17.60;46.30